sensor_id;sensor_type;location;lat;lon;timestamp;P1;durP1;ratioP1;P2;durP2;ratioP2
21814;SDS011;11069;48.988;8.450;2023-06-26T00:01:50;10.52;;;7.13;;
21814;SDS011;11069;48.988;8.450;2023-06-26T00:04:16;10.70;;;6.03;;
21814;SDS011;11069;48.988;8.450;2023-06-26T00:06:45;8.13;;;5.75;;
21814;SDS011;11069;48.988;8.450;2023-06-26T00:09:14;9.27;;;6.80;;
21814;SDS011;11069;48.988;8.450;2023-06-26T00:11:43;8.30;;;5.85;;
21814;SDS011;11069;48.988;8.450;2023-06-26T00:14:09;12.35;;;6.22;;
21814;SDS011;11069;48.988;8.450;2023-06-26T00:16:35;8.98;;;6.72;;
21814;SDS011;11069;48.988;8.450;2023-06-26T00:19:01;7.78;;;6.00;;
21814;SDS011;11069;48.988;8.450;2023-06-26T00:21:27;8.68;;;6.18;;
21814;SDS011;11069;48.988;8.450;2023-06-26T00:23:53;8.93;;;6.53;;
21814;SDS011;11069;48.988;8.450;2023-06-26T00:26:19;9.25;;;6.57;;
21814;SDS011;11069;48.988;8.450;2023-06-26T00:28:45;8.00;;;5.78;;
21814;SDS011;11069;48.988;8.450;2023-06-26T00:31:11;9.40;;;6.63;;
21814;SDS011;11069;48.988;8.450;2023-06-26T00:33:37;7.95;;;5.90;;
21814;SDS011;11069;48.988;8.450;2023-06-26T00:36:03;10.02;;;6.35;;
21814;SDS011;11069;48.988;8.450;2023-06-26T00:38:29;10.10;;;6.65;;
21814;SDS011;11069;48.988;8.450;2023-06-26T00:40:55;8.23;;;6.05;;
21814;SDS011;11069;48.988;8.450;2023-06-26T00:43:21;12.95;;;6.63;;
21814;SDS011;11069;48.988;8.450;2023-06-26T00:45:47;8.55;;;6.75;;
21814;SDS011;11069;48.988;8.450;2023-06-26T00:48:13;8.07;;;6.22;;
21814;SDS011;11069;48.988;8.450;2023-06-26T00:50:40;8.23;;;6.20;;
21814;SDS011;11069;48.988;8.450;2023-06-26T00:53:07;8.75;;;6.18;;
21814;SDS011;11069;48.988;8.450;2023-06-26T00:55:37;11.10;;;6.30;;
21814;SDS011;11069;48.988;8.450;2023-06-26T00:58:06;9.75;;;6.03;;
21814;SDS011;11069;48.988;8.450;2023-06-26T01:00:32;8.30;;;6.13;;
21814;SDS011;11069;48.988;8.450;2023-06-26T01:02:58;9.75;;;6.30;;
21814;SDS011;11069;48.988;8.450;2023-06-26T01:05:24;8.52;;;6.30;;
21814;SDS011;11069;48.988;8.450;2023-06-26T01:07:50;10.02;;;6.65;;
21814;SDS011;11069;48.988;8.450;2023-06-26T01:10:16;9.07;;;6.05;;
21814;SDS011;11069;48.988;8.450;2023-06-26T01:12:42;8.80;;;6.13;;
21814;SDS011;11069;48.988;8.450;2023-06-26T01:15:08;9.23;;;6.25;;
21814;SDS011;11069;48.988;8.450;2023-06-26T01:17:36;9.70;;;6.50;;
21814;SDS011;11069;48.988;8.450;2023-06-26T01:20:03;9.82;;;6.40;;
21814;SDS011;11069;48.988;8.450;2023-06-26T01:22:37;8.15;;;5.97;;
21814;SDS011;11069;48.988;8.450;2023-06-26T01:30:17;9.25;;;6.22;;
21814;SDS011;11069;48.988;8.450;2023-06-26T01:32:44;8.73;;;5.90;;
21814;SDS011;11069;48.988;8.450;2023-06-26T01:35:10;10.10;;;6.75;;
21814;SDS011;11069;48.988;8.450;2023-06-26T01:37:37;10.75;;;7.50;;
21814;SDS011;11069;48.988;8.450;2023-06-26T01:40:03;8.88;;;6.38;;
21814;SDS011;11069;48.988;8.450;2023-06-26T01:42:35;8.82;;;6.35;;
21814;SDS011;11069;48.988;8.450;2023-06-26T01:45:02;8.45;;;6.18;;
21814;SDS011;11069;48.988;8.450;2023-06-26T01:47:33;9.50;;;6.85;;
21814;SDS011;11069;48.988;8.450;2023-06-26T01:50:11;10.15;;;6.47;;
21814;SDS011;11069;48.988;8.450;2023-06-26T01:53:24;9.57;;;6.63;;
21814;SDS011;11069;48.988;8.450;2023-06-26T01:55:32;8.88;;;6.30;;
21814;SDS011;11069;48.988;8.450;2023-06-26T01:58:01;8.23;;;6.22;;
21814;SDS011;11069;48.988;8.450;2023-06-26T02:00:27;9.55;;;7.20;;
21814;SDS011;11069;48.988;8.450;2023-06-26T02:02:53;9.63;;;6.93;;
21814;SDS011;11069;48.988;8.450;2023-06-26T02:05:19;10.85;;;6.88;;
21814;SDS011;11069;48.988;8.450;2023-06-26T02:07:45;10.18;;;6.28;;
21814;SDS011;11069;48.988;8.450;2023-06-26T02:10:11;9.23;;;6.50;;
21814;SDS011;11069;48.988;8.450;2023-06-26T02:12:37;9.27;;;6.88;;
21814;SDS011;11069;48.988;8.450;2023-06-26T02:15:04;8.65;;;6.20;;
21814;SDS011;11069;48.988;8.450;2023-06-26T02:17:30;8.40;;;6.30;;
21814;SDS011;11069;48.988;8.450;2023-06-26T02:19:56;10.23;;;7.20;;
21814;SDS011;11069;48.988;8.450;2023-06-26T02:22:22;9.85;;;6.65;;
21814;SDS011;11069;48.988;8.450;2023-06-26T02:24:48;9.40;;;6.50;;
21814;SDS011;11069;48.988;8.450;2023-06-26T02:27:14;8.32;;;6.28;;
21814;SDS011;11069;48.988;8.450;2023-06-26T02:29:40;10.43;;;6.97;;
21814;SDS011;11069;48.988;8.450;2023-06-26T02:32:06;10.35;;;7.15;;
21814;SDS011;11069;48.988;8.450;2023-06-26T02:34:32;9.18;;;6.78;;
21814;SDS011;11069;48.988;8.450;2023-06-26T02:36:58;9.18;;;6.00;;
21814;SDS011;11069;48.988;8.450;2023-06-26T02:39:25;10.50;;;6.95;;
21814;SDS011;11069;48.988;8.450;2023-06-26T02:41:51;10.18;;;7.35;;
21814;SDS011;11069;48.988;8.450;2023-06-26T02:44:17;9.85;;;7.45;;
21814;SDS011;11069;48.988;8.450;2023-06-26T02:46:43;9.23;;;7.05;;
21814;SDS011;11069;48.988;8.450;2023-06-26T02:49:09;9.93;;;7.05;;
21814;SDS011;11069;48.988;8.450;2023-06-26T02:51:35;9.20;;;6.60;;
21814;SDS011;11069;48.988;8.450;2023-06-26T02:54:02;9.32;;;6.72;;
21814;SDS011;11069;48.988;8.450;2023-06-26T02:56:28;9.07;;;6.78;;
21814;SDS011;11069;48.988;8.450;2023-06-26T02:58:57;9.57;;;6.95;;
21814;SDS011;11069;48.988;8.450;2023-06-26T03:01:23;9.05;;;6.97;;
21814;SDS011;11069;48.988;8.450;2023-06-26T03:03:49;9.85;;;6.78;;
21814;SDS011;11069;48.988;8.450;2023-06-26T03:06:16;9.68;;;6.97;;
21814;SDS011;11069;48.988;8.450;2023-06-26T03:08:46;10.77;;;7.20;;
21814;SDS011;11069;48.988;8.450;2023-06-26T03:11:12;9.23;;;6.88;;
21814;SDS011;11069;48.988;8.450;2023-06-26T03:13:38;9.13;;;6.75;;
21814;SDS011;11069;48.988;8.450;2023-06-26T03:16:04;9.07;;;6.82;;
21814;SDS011;11069;48.988;8.450;2023-06-26T03:18:30;9.43;;;7.28;;
21814;SDS011;11069;48.988;8.450;2023-06-26T03:20:56;10.68;;;7.05;;
21814;SDS011;11069;48.988;8.450;2023-06-26T03:23:22;9.88;;;7.22;;
21814;SDS011;11069;48.988;8.450;2023-06-26T03:25:49;9.48;;;6.70;;
21814;SDS011;11069;48.988;8.450;2023-06-26T03:28:16;9.15;;;6.53;;
21814;SDS011;11069;48.988;8.450;2023-06-26T03:30:42;7.70;;;6.13;;
21814;SDS011;11069;48.988;8.450;2023-06-26T03:33:08;9.93;;;6.85;;
21814;SDS011;11069;48.988;8.450;2023-06-26T03:35:34;8.75;;;6.45;;
21814;SDS011;11069;48.988;8.450;2023-06-26T03:38:00;9.38;;;6.80;;
21814;SDS011;11069;48.988;8.450;2023-06-26T03:40:26;9.18;;;6.13;;
21814;SDS011;11069;48.988;8.450;2023-06-26T03:42:52;10.68;;;6.78;;
21814;SDS011;11069;48.988;8.450;2023-06-26T03:45:18;7.85;;;6.22;;
21814;SDS011;11069;48.988;8.450;2023-06-26T03:47:45;8.77;;;6.07;;
21814;SDS011;11069;48.988;8.450;2023-06-26T03:50:13;10.50;;;7.10;;
21814;SDS011;11069;48.988;8.450;2023-06-26T03:52:39;8.68;;;6.38;;
21814;SDS011;11069;48.988;8.450;2023-06-26T03:55:05;9.68;;;6.43;;
21814;SDS011;11069;48.988;8.450;2023-06-26T03:57:31;11.68;;;7.18;;
21814;SDS011;11069;48.988;8.450;2023-06-26T03:59:57;10.60;;;6.72;;
21814;SDS011;11069;48.988;8.450;2023-06-26T04:02:23;9.77;;;7.25;;
21814;SDS011;11069;48.988;8.450;2023-06-26T04:04:49;10.93;;;7.38;;
21814;SDS011;11069;48.988;8.450;2023-06-26T04:07:17;9.18;;;6.88;;
21814;SDS011;11069;48.988;8.450;2023-06-26T04:09:42;10.98;;;6.82;;
21814;SDS011;11069;48.988;8.450;2023-06-26T04:12:09;10.57;;;7.28;;
21814;SDS011;11069;48.988;8.450;2023-06-26T04:14:35;9.43;;;6.13;;
21814;SDS011;11069;48.988;8.450;2023-06-26T04:17:01;9.45;;;7.07;;
21814;SDS011;11069;48.988;8.450;2023-06-26T04:19:28;10.85;;;6.95;;
21814;SDS011;11069;48.988;8.450;2023-06-26T04:21:54;11.60;;;7.07;;
21814;SDS011;11069;48.988;8.450;2023-06-26T04:24:20;9.13;;;6.60;;
21814;SDS011;11069;48.988;8.450;2023-06-26T04:26:46;10.20;;;7.05;;
21814;SDS011;11069;48.988;8.450;2023-06-26T04:29:12;10.98;;;7.00;;
21814;SDS011;11069;48.988;8.450;2023-06-26T04:31:38;10.10;;;6.82;;
21814;SDS011;11069;48.988;8.450;2023-06-26T04:34:04;8.88;;;6.88;;
21814;SDS011;11069;48.988;8.450;2023-06-26T04:36:30;9.02;;;6.20;;
21814;SDS011;11069;48.988;8.450;2023-06-26T04:38:58;9.73;;;6.72;;
21814;SDS011;11069;48.988;8.450;2023-06-26T04:41:24;9.45;;;6.80;;
21814;SDS011;11069;48.988;8.450;2023-06-26T04:43:50;11.25;;;6.80;;
21814;SDS011;11069;48.988;8.450;2023-06-26T04:46:16;8.38;;;6.22;;
21814;SDS011;11069;48.988;8.450;2023-06-26T04:48:42;9.27;;;6.40;;
21814;SDS011;11069;48.988;8.450;2023-06-26T04:51:09;9.25;;;6.32;;
21814;SDS011;11069;48.988;8.450;2023-06-26T04:53:35;10.23;;;6.63;;
21814;SDS011;11069;48.988;8.450;2023-06-26T04:56:01;10.98;;;6.47;;
21814;SDS011;11069;48.988;8.450;2023-06-26T04:58:27;9.25;;;6.57;;
21814;SDS011;11069;48.988;8.450;2023-06-26T05:00:53;7.75;;;5.70;;
21814;SDS011;11069;48.988;8.450;2023-06-26T05:03:19;7.88;;;6.20;;
21814;SDS011;11069;48.988;8.450;2023-06-26T05:05:45;11.77;;;6.35;;
21814;SDS011;11069;48.988;8.450;2023-06-26T05:08:15;12.40;;;7.00;;
21814;SDS011;11069;48.988;8.450;2023-06-26T05:10:44;8.93;;;6.63;;
21814;SDS011;11069;48.988;8.450;2023-06-26T05:13:11;9.60;;;6.20;;
21814;SDS011;11069;48.988;8.450;2023-06-26T05:15:42;14.43;;;8.18;;
21814;SDS011;11069;48.988;8.450;2023-06-26T05:18:08;11.30;;;6.22;;
21814;SDS011;11069;48.988;8.450;2023-06-26T05:20:35;8.75;;;5.93;;
21814;SDS011;11069;48.988;8.450;2023-06-26T05:23:01;8.82;;;6.05;;
21814;SDS011;11069;48.988;8.450;2023-06-26T05:25:28;8.30;;;5.70;;
21814;SDS011;11069;48.988;8.450;2023-06-26T05:27:55;9.35;;;6.57;;
21814;SDS011;11069;48.988;8.450;2023-06-26T05:30:21;8.20;;;6.00;;
21814;SDS011;11069;48.988;8.450;2023-06-26T05:32:50;7.88;;;5.72;;
21814;SDS011;11069;48.988;8.450;2023-06-26T05:35:16;10.43;;;6.53;;
21814;SDS011;11069;48.988;8.450;2023-06-26T05:37:42;10.27;;;6.40;;
21814;SDS011;11069;48.988;8.450;2023-06-26T05:40:08;8.25;;;6.18;;
21814;SDS011;11069;48.988;8.450;2023-06-26T05:42:34;7.82;;;5.70;;
21814;SDS011;11069;48.988;8.450;2023-06-26T05:45:00;9.23;;;6.22;;
21814;SDS011;11069;48.988;8.450;2023-06-26T05:47:26;9.35;;;6.30;;
21814;SDS011;11069;48.988;8.450;2023-06-26T05:49:53;9.32;;;6.05;;
21814;SDS011;11069;48.988;8.450;2023-06-26T05:52:19;9.20;;;6.53;;
21814;SDS011;11069;48.988;8.450;2023-06-26T05:54:45;7.95;;;6.07;;
21814;SDS011;11069;48.988;8.450;2023-06-26T05:57:14;9.02;;;6.25;;
21814;SDS011;11069;48.988;8.450;2023-06-26T05:59:41;9.32;;;6.40;;
21814;SDS011;11069;48.988;8.450;2023-06-26T06:02:08;6.93;;;5.28;;
21814;SDS011;11069;48.988;8.450;2023-06-26T06:04:34;9.18;;;6.35;;
21814;SDS011;11069;48.988;8.450;2023-06-26T06:07:02;9.25;;;6.32;;
21814;SDS011;11069;48.988;8.450;2023-06-26T06:09:28;9.15;;;6.15;;
21814;SDS011;11069;48.988;8.450;2023-06-26T06:11:54;9.50;;;6.60;;
21814;SDS011;11069;48.988;8.450;2023-06-26T06:14:20;9.05;;;6.13;;
21814;SDS011;11069;48.988;8.450;2023-06-26T06:16:46;9.13;;;6.05;;
21814;SDS011;11069;48.988;8.450;2023-06-26T06:19:12;10.35;;;5.45;;
21814;SDS011;11069;48.988;8.450;2023-06-26T06:21:38;8.10;;;5.40;;
21814;SDS011;11069;48.988;8.450;2023-06-26T06:24:08;10.02;;;5.72;;
21814;SDS011;11069;48.988;8.450;2023-06-26T06:26:34;9.55;;;6.00;;
21814;SDS011;11069;48.988;8.450;2023-06-26T06:29:00;8.38;;;5.20;;
21814;SDS011;11069;48.988;8.450;2023-06-26T06:31:26;9.32;;;5.88;;
21814;SDS011;11069;48.988;8.450;2023-06-26T06:33:55;7.47;;;5.57;;
21814;SDS011;11069;48.988;8.450;2023-06-26T06:36:21;7.65;;;5.93;;
21814;SDS011;11069;48.988;8.450;2023-06-26T06:38:47;6.60;;;5.25;;
21814;SDS011;11069;48.988;8.450;2023-06-26T06:41:13;6.57;;;5.32;;
21814;SDS011;11069;48.988;8.450;2023-06-26T06:43:40;8.23;;;6.07;;
21814;SDS011;11069;48.988;8.450;2023-06-26T06:46:07;7.57;;;5.30;;
21814;SDS011;11069;48.988;8.450;2023-06-26T06:48:33;8.85;;;5.57;;
21814;SDS011;11069;48.988;8.450;2023-06-26T06:50:58;6.45;;;5.22;;
21814;SDS011;11069;48.988;8.450;2023-06-26T06:53:24;8.25;;;5.25;;
21814;SDS011;11069;48.988;8.450;2023-06-26T06:55:50;7.05;;;4.93;;
21814;SDS011;11069;48.988;8.450;2023-06-26T06:58:16;6.60;;;4.97;;
21814;SDS011;11069;48.988;8.450;2023-06-26T07:00:44;7.97;;;5.35;;
21814;SDS011;11069;48.988;8.450;2023-06-26T07:03:10;6.88;;;5.10;;
21814;SDS011;11069;48.988;8.450;2023-06-26T07:05:36;9.13;;;5.45;;
21814;SDS011;11069;48.988;8.450;2023-06-26T07:08:02;7.20;;;5.53;;
21814;SDS011;11069;48.988;8.450;2023-06-26T07:10:31;7.72;;;5.90;;
21814;SDS011;11069;48.988;8.450;2023-06-26T07:12:57;9.38;;;5.80;;
21814;SDS011;11069;48.988;8.450;2023-06-26T07:15:23;7.20;;;5.38;;
21814;SDS011;11069;48.988;8.450;2023-06-26T07:17:49;5.43;;;4.88;;
21814;SDS011;11069;48.988;8.450;2023-06-26T07:20:15;7.35;;;5.32;;
21814;SDS011;11069;48.988;8.450;2023-06-26T07:22:41;8.25;;;5.65;;
21814;SDS011;11069;48.988;8.450;2023-06-26T07:25:09;8.38;;;5.30;;
21814;SDS011;11069;48.988;8.450;2023-06-26T07:27:36;9.05;;;5.60;;
21814;SDS011;11069;48.988;8.450;2023-06-26T07:30:02;6.68;;;4.53;;
21814;SDS011;11069;48.988;8.450;2023-06-26T07:32:28;8.32;;;5.45;;
21814;SDS011;11069;48.988;8.450;2023-06-26T07:34:54;8.90;;;5.07;;
21814;SDS011;11069;48.988;8.450;2023-06-26T07:37:20;7.03;;;5.53;;
21814;SDS011;11069;48.988;8.450;2023-06-26T07:39:47;8.50;;;5.78;;
21814;SDS011;11069;48.988;8.450;2023-06-26T07:42:13;7.18;;;5.28;;
21814;SDS011;11069;48.988;8.450;2023-06-26T07:44:39;7.68;;;5.00;;
21814;SDS011;11069;48.988;8.450;2023-06-26T07:47:05;7.30;;;5.25;;
21814;SDS011;11069;48.988;8.450;2023-06-26T07:49:31;5.80;;;4.55;;
21814;SDS011;11069;48.988;8.450;2023-06-26T07:51:57;5.75;;;4.78;;
21814;SDS011;11069;48.988;8.450;2023-06-26T07:54:23;5.43;;;4.47;;
21814;SDS011;11069;48.988;8.450;2023-06-26T07:59:19;5.97;;;4.25;;
21814;SDS011;11069;48.988;8.450;2023-06-26T08:01:46;5.88;;;4.18;;
21814;SDS011;11069;48.988;8.450;2023-06-26T08:04:12;8.13;;;4.45;;
21814;SDS011;11069;48.988;8.450;2023-06-26T08:06:38;5.32;;;4.45;;
21814;SDS011;11069;48.988;8.450;2023-06-26T08:09:07;4.93;;;4.43;;
21814;SDS011;11069;48.988;8.450;2023-06-26T08:11:33;6.43;;;4.55;;
21814;SDS011;11069;48.988;8.450;2023-06-26T08:13:59;5.55;;;4.22;;
21814;SDS011;11069;48.988;8.450;2023-06-26T08:16:25;5.75;;;4.65;;
21814;SDS011;11069;48.988;8.450;2023-06-26T08:18:51;7.18;;;5.05;;
21814;SDS011;11069;48.988;8.450;2023-06-26T08:21:17;6.03;;;4.60;;
21814;SDS011;11069;48.988;8.450;2023-06-26T08:23:43;6.45;;;4.47;;
21814;SDS011;11069;48.988;8.450;2023-06-26T08:26:09;6.82;;;4.50;;
21814;SDS011;11069;48.988;8.450;2023-06-26T08:28:35;6.30;;;4.53;;
21814;SDS011;11069;48.988;8.450;2023-06-26T08:31:01;5.47;;;4.50;;
21814;SDS011;11069;48.988;8.450;2023-06-26T08:33:27;6.03;;;4.82;;
21814;SDS011;11069;48.988;8.450;2023-06-26T08:35:53;6.20;;;5.18;;
21814;SDS011;11069;48.988;8.450;2023-06-26T08:38:19;7.82;;;5.13;;
21814;SDS011;11069;48.988;8.450;2023-06-26T08:40:46;6.18;;;5.10;;
21814;SDS011;11069;48.988;8.450;2023-06-26T08:43:12;7.40;;;5.20;;
21814;SDS011;11069;48.988;8.450;2023-06-26T08:45:38;7.03;;;5.05;;
21814;SDS011;11069;48.988;8.450;2023-06-26T08:48:06;7.00;;;5.20;;
21814;SDS011;11069;48.988;8.450;2023-06-26T08:50:33;7.55;;;5.60;;
21814;SDS011;11069;48.988;8.450;2023-06-26T08:53:10;5.97;;;5.18;;
21814;SDS011;11069;48.988;8.450;2023-06-26T08:55:41;7.18;;;5.38;;
21814;SDS011;11069;48.988;8.450;2023-06-26T08:58:07;11.15;;;5.88;;
21814;SDS011;11069;48.988;8.450;2023-06-26T09:00:33;7.18;;;5.35;;
21814;SDS011;11069;48.988;8.450;2023-06-26T09:02:59;8.30;;;5.10;;
21814;SDS011;11069;48.988;8.450;2023-06-26T09:05:26;7.40;;;5.32;;
21814;SDS011;11069;48.988;8.450;2023-06-26T09:07:52;6.55;;;5.32;;
21814;SDS011;11069;48.988;8.450;2023-06-26T09:10:20;6.30;;;5.05;;
21814;SDS011;11069;48.988;8.450;2023-06-26T09:12:47;7.38;;;5.10;;
21814;SDS011;11069;48.988;8.450;2023-06-26T09:15:14;5.45;;;4.70;;
21814;SDS011;11069;48.988;8.450;2023-06-26T09:17:40;7.35;;;4.95;;
21814;SDS011;11069;48.988;8.450;2023-06-26T09:20:08;5.97;;;4.93;;
21814;SDS011;11069;48.988;8.450;2023-06-26T09:22:40;6.00;;;5.13;;
21814;SDS011;11069;48.988;8.450;2023-06-26T09:25:06;5.22;;;4.40;;
21814;SDS011;11069;48.988;8.450;2023-06-26T09:27:33;9.48;;;4.25;;
21814;SDS011;11069;48.988;8.450;2023-06-26T09:30:00;6.03;;;4.65;;
21814;SDS011;11069;48.988;8.450;2023-06-26T09:32:27;6.90;;;5.18;;
21814;SDS011;11069;48.988;8.450;2023-06-26T09:34:53;5.75;;;4.75;;
21814;SDS011;11069;48.988;8.450;2023-06-26T09:37:25;6.53;;;4.95;;
21814;SDS011;11069;48.988;8.450;2023-06-26T09:39:51;7.63;;;5.03;;
21814;SDS011;11069;48.988;8.450;2023-06-26T09:42:18;5.68;;;5.00;;
21814;SDS011;11069;48.988;8.450;2023-06-26T09:44:45;5.65;;;4.63;;
21814;SDS011;11069;48.988;8.450;2023-06-26T09:47:11;6.10;;;4.63;;
21814;SDS011;11069;48.988;8.450;2023-06-26T09:49:41;6.32;;;4.63;;
21814;SDS011;11069;48.988;8.450;2023-06-26T09:52:10;5.35;;;4.75;;
21814;SDS011;11069;48.988;8.450;2023-06-26T09:54:39;5.10;;;4.45;;
21814;SDS011;11069;48.988;8.450;2023-06-26T09:57:09;7.63;;;4.72;;
21814;SDS011;11069;48.988;8.450;2023-06-26T09:59:35;6.68;;;5.10;;
21814;SDS011;11069;48.988;8.450;2023-06-26T10:02:01;5.75;;;4.72;;
21814;SDS011;11069;48.988;8.450;2023-06-26T10:04:27;7.88;;;5.28;;
21814;SDS011;11069;48.988;8.450;2023-06-26T10:06:56;6.55;;;5.32;;
21814;SDS011;11069;48.988;8.450;2023-06-26T10:09:23;5.95;;;4.85;;
21814;SDS011;11069;48.988;8.450;2023-06-26T10:11:56;6.47;;;5.03;;
21814;SDS011;11069;48.988;8.450;2023-06-26T10:14:25;6.47;;;5.15;;
21814;SDS011;11069;48.988;8.450;2023-06-26T10:16:52;7.68;;;5.55;;
21814;SDS011;11069;48.988;8.450;2023-06-26T10:19:18;6.97;;;5.15;;
21814;SDS011;11069;48.988;8.450;2023-06-26T10:21:54;6.18;;;4.43;;
21814;SDS011;11069;48.988;8.450;2023-06-26T10:24:21;8.13;;;5.57;;
21814;SDS011;11069;48.988;8.450;2023-06-26T10:26:49;9.57;;;5.18;;
21814;SDS011;11069;48.988;8.450;2023-06-26T10:29:16;6.40;;;4.72;;
21814;SDS011;11069;48.988;8.450;2023-06-26T10:31:43;7.15;;;5.30;;
21814;SDS011;11069;48.988;8.450;2023-06-26T10:34:10;7.70;;;5.50;;
21814;SDS011;11069;48.988;8.450;2023-06-26T10:36:36;7.95;;;4.78;;
21814;SDS011;11069;48.988;8.450;2023-06-26T10:39:05;10.20;;;5.45;;
21814;SDS011;11069;48.988;8.450;2023-06-26T10:41:38;8.57;;;4.93;;
21814;SDS011;11069;48.988;8.450;2023-06-26T10:46:54;5.47;;;4.82;;
21814;SDS011;11069;48.988;8.450;2023-06-26T10:49:28;8.20;;;4.80;;
21814;SDS011;11069;48.988;8.450;2023-06-26T10:51:55;7.75;;;5.25;;
21814;SDS011;11069;48.988;8.450;2023-06-26T10:54:25;5.95;;;4.72;;
21814;SDS011;11069;48.988;8.450;2023-06-26T10:56:54;6.15;;;4.68;;
21814;SDS011;11069;48.988;8.450;2023-06-26T10:59:24;8.68;;;5.40;;
21814;SDS011;11069;48.988;8.450;2023-06-26T11:04:35;6.63;;;5.00;;
21814;SDS011;11069;48.988;8.450;2023-06-26T11:07:15;5.55;;;4.75;;
21814;SDS011;11069;48.988;8.450;2023-06-26T11:10:00;6.15;;;5.03;;
21814;SDS011;11069;48.988;8.450;2023-06-26T11:12:39;7.82;;;4.90;;
21814;SDS011;11069;48.988;8.450;2023-06-26T11:15:16;5.35;;;4.82;;
21814;SDS011;11069;48.988;8.450;2023-06-26T11:17:42;5.47;;;4.50;;
21814;SDS011;11069;48.988;8.450;2023-06-26T11:20:10;5.25;;;4.60;;
21814;SDS011;11069;48.988;8.450;2023-06-26T11:22:37;6.00;;;4.55;;
21814;SDS011;11069;48.988;8.450;2023-06-26T11:25:04;6.00;;;4.30;;
21814;SDS011;11069;48.988;8.450;2023-06-26T11:27:37;6.38;;;4.53;;
21814;SDS011;11069;48.988;8.450;2023-06-26T11:30:05;6.78;;;5.05;;
21814;SDS011;11069;48.988;8.450;2023-06-26T11:32:31;4.47;;;3.80;;
21814;SDS011;11069;48.988;8.450;2023-06-26T11:35:00;5.80;;;4.38;;
21814;SDS011;11069;48.988;8.450;2023-06-26T11:37:26;6.57;;;4.70;;
21814;SDS011;11069;48.988;8.450;2023-06-26T11:39:52;6.32;;;4.30;;
21814;SDS011;11069;48.988;8.450;2023-06-26T11:42:19;5.05;;;4.15;;
21814;SDS011;11069;48.988;8.450;2023-06-26T11:44:46;5.38;;;3.88;;
21814;SDS011;11069;48.988;8.450;2023-06-26T11:47:15;5.50;;;4.03;;
21814;SDS011;11069;48.988;8.450;2023-06-26T11:49:43;5.78;;;4.05;;
21814;SDS011;11069;48.988;8.450;2023-06-26T11:52:09;4.75;;;3.92;;
21814;SDS011;11069;48.988;8.450;2023-06-26T11:54:35;6.43;;;4.28;;
21814;SDS011;11069;48.988;8.450;2023-06-26T11:57:01;4.47;;;3.95;;
21814;SDS011;11069;48.988;8.450;2023-06-26T11:59:34;5.53;;;3.42;;
21814;SDS011;11069;48.988;8.450;2023-06-26T12:02:01;7.32;;;3.67;;
21814;SDS011;11069;48.988;8.450;2023-06-26T12:04:30;4.78;;;3.92;;
21814;SDS011;11069;48.988;8.450;2023-06-26T12:06:56;4.88;;;3.92;;
21814;SDS011;11069;48.988;8.450;2023-06-26T12:09:23;4.82;;;3.70;;
21814;SDS011;11069;48.988;8.450;2023-06-26T12:11:51;5.30;;;3.58;;
21814;SDS011;11069;48.988;8.450;2023-06-26T12:14:17;4.88;;;3.28;;
21814;SDS011;11069;48.988;8.450;2023-06-26T12:16:45;4.55;;;3.75;;
21814;SDS011;11069;48.988;8.450;2023-06-26T12:19:11;4.55;;;3.35;;
21814;SDS011;11069;48.988;8.450;2023-06-26T12:24:07;4.55;;;3.05;;
21814;SDS011;11069;48.988;8.450;2023-06-26T12:26:33;4.13;;;3.20;;
21814;SDS011;11069;48.988;8.450;2023-06-26T12:29:06;3.92;;;3.08;;
21814;SDS011;11069;48.988;8.450;2023-06-26T12:31:32;3.20;;;2.60;;
21814;SDS011;11069;48.988;8.450;2023-06-26T12:33:59;4.00;;;2.72;;
21814;SDS011;11069;48.988;8.450;2023-06-26T12:36:25;3.30;;;2.90;;
21814;SDS011;11069;48.988;8.450;2023-06-26T12:38:52;5.38;;;2.97;;
21814;SDS011;11069;48.988;8.450;2023-06-26T12:41:18;4.00;;;2.78;;
21814;SDS011;11069;48.988;8.450;2023-06-26T12:43:45;3.65;;;2.65;;
21814;SDS011;11069;48.988;8.450;2023-06-26T12:46:11;3.88;;;2.83;;
21814;SDS011;11069;48.988;8.450;2023-06-26T12:48:43;3.85;;;2.50;;
21814;SDS011;11069;48.988;8.450;2023-06-26T12:51:15;2.97;;;2.30;;
21814;SDS011;11069;48.988;8.450;2023-06-26T12:53:41;3.78;;;2.90;;
21814;SDS011;11069;48.988;8.450;2023-06-26T12:56:07;2.80;;;2.30;;
21814;SDS011;11069;48.988;8.450;2023-06-26T12:58:34;3.00;;;2.30;;
21814;SDS011;11069;48.988;8.450;2023-06-26T13:01:02;3.88;;;2.78;;
21814;SDS011;11069;48.988;8.450;2023-06-26T13:03:28;5.28;;;2.53;;
21814;SDS011;11069;48.988;8.450;2023-06-26T13:05:54;2.70;;;2.40;;
21814;SDS011;11069;48.988;8.450;2023-06-26T13:08:20;4.32;;;2.78;;
21814;SDS011;11069;48.988;8.450;2023-06-26T13:10:46;3.45;;;2.70;;
21814;SDS011;11069;48.988;8.450;2023-06-26T13:13:12;5.13;;;2.72;;
21814;SDS011;11069;48.988;8.450;2023-06-26T13:15:38;4.25;;;2.83;;
21814;SDS011;11069;48.988;8.450;2023-06-26T13:18:04;4.00;;;2.47;;
21814;SDS011;11069;48.988;8.450;2023-06-26T13:20:30;4.55;;;3.03;;
21814;SDS011;11069;48.988;8.450;2023-06-26T13:22:56;4.53;;;2.83;;
21814;SDS011;11069;48.988;8.450;2023-06-26T13:25:22;4.60;;;2.72;;
21814;SDS011;11069;48.988;8.450;2023-06-26T13:27:48;4.47;;;2.95;;
21814;SDS011;11069;48.988;8.450;2023-06-26T13:30:14;5.57;;;2.72;;
21814;SDS011;11069;48.988;8.450;2023-06-26T13:32:41;3.55;;;2.67;;
21814;SDS011;11069;48.988;8.450;2023-06-26T13:35:07;3.50;;;2.60;;
21814;SDS011;11069;48.988;8.450;2023-06-26T13:37:34;4.30;;;3.00;;
21814;SDS011;11069;48.988;8.450;2023-06-26T13:40:01;4.05;;;2.90;;
21814;SDS011;11069;48.988;8.450;2023-06-26T13:42:27;4.82;;;3.35;;
21814;SDS011;11069;48.988;8.450;2023-06-26T13:44:53;3.80;;;3.10;;
21814;SDS011;11069;48.988;8.450;2023-06-26T13:47:19;6.97;;;3.65;;
21814;SDS011;11069;48.988;8.450;2023-06-26T13:49:46;4.43;;;3.60;;
21814;SDS011;11069;48.988;8.450;2023-06-26T13:52:12;6.32;;;4.13;;
21814;SDS011;11069;48.988;8.450;2023-06-26T13:54:38;6.70;;;4.38;;
21814;SDS011;11069;48.988;8.450;2023-06-26T13:57:05;6.03;;;4.05;;
21814;SDS011;11069;48.988;8.450;2023-06-26T13:59:32;5.45;;;3.63;;
21814;SDS011;11069;48.988;8.450;2023-06-26T14:01:58;8.07;;;4.40;;
21814;SDS011;11069;48.988;8.450;2023-06-26T14:04:24;5.10;;;3.80;;
21814;SDS011;11069;48.988;8.450;2023-06-26T14:06:50;6.30;;;4.38;;
21814;SDS011;11069;48.988;8.450;2023-06-26T14:09:16;6.72;;;4.40;;
21814;SDS011;11069;48.988;8.450;2023-06-26T14:11:43;5.63;;;4.00;;
21814;SDS011;11069;48.988;8.450;2023-06-26T14:14:09;5.75;;;4.15;;
21814;SDS011;11069;48.988;8.450;2023-06-26T14:16:35;6.85;;;4.63;;
21814;SDS011;11069;48.988;8.450;2023-06-26T14:19:01;8.55;;;4.63;;
21814;SDS011;11069;48.988;8.450;2023-06-26T14:21:27;5.82;;;4.18;;
21814;SDS011;11069;48.988;8.450;2023-06-26T14:23:54;6.50;;;4.60;;
21814;SDS011;11069;48.988;8.450;2023-06-26T14:26:20;6.93;;;4.25;;
21814;SDS011;11069;48.988;8.450;2023-06-26T14:28:46;7.68;;;4.47;;
21814;SDS011;11069;48.988;8.450;2023-06-26T14:31:12;5.80;;;4.07;;
21814;SDS011;11069;48.988;8.450;2023-06-26T14:33:39;5.43;;;4.38;;
21814;SDS011;11069;48.988;8.450;2023-06-26T14:36:05;6.10;;;4.20;;
21814;SDS011;11069;48.988;8.450;2023-06-26T14:38:31;5.28;;;4.32;;
21814;SDS011;11069;48.988;8.450;2023-06-26T14:40:57;6.25;;;3.85;;
21814;SDS011;11069;48.988;8.450;2023-06-26T14:43:23;6.07;;;4.15;;
21814;SDS011;11069;48.988;8.450;2023-06-26T14:45:49;4.97;;;3.72;;
21814;SDS011;11069;48.988;8.450;2023-06-26T14:48:15;6.78;;;4.30;;
21814;SDS011;11069;48.988;8.450;2023-06-26T14:50:41;5.72;;;3.88;;
21814;SDS011;11069;48.988;8.450;2023-06-26T14:53:07;5.93;;;4.38;;
21814;SDS011;11069;48.988;8.450;2023-06-26T14:55:33;7.10;;;3.67;;
21814;SDS011;11069;48.988;8.450;2023-06-26T14:57:59;6.78;;;3.72;;
21814;SDS011;11069;48.988;8.450;2023-06-26T15:00:25;5.30;;;3.78;;